createdAt,value
2022-09-11T00:00:14.493Z,1117.51
2022-09-11T00:01:14.457Z,1117.34
2022-09-11T00:02:14.474Z,1117.35
2022-09-11T00:03:14.458Z,1117.37
2022-09-11T00:04:14.517Z,1117.27
2022-09-11T00:05:14.459Z,1117.31
2022-09-11T00:06:14.455Z,1117.26
2022-09-11T00:07:14.462Z,1117.45
2022-09-11T00:08:14.463Z,1117.44
2022-09-11T00:09:14.480Z,1117.43
2022-09-11T00:10:17.255Z,1117.41
2022-09-11T00:11:14.475Z,1117.49
2022-09-11T00:12:14.475Z,1117.39
2022-09-11T00:13:14.469Z,1117.33
2022-09-11T00:14:14.493Z,1117.36
2022-09-11T00:15:14.470Z,1117.38
2022-09-11T00:16:14.509Z,1117.21
2022-09-11T00:17:14.477Z,1117.15
2022-09-11T00:18:14.479Z,1117.32
2022-09-11T00:19:14.499Z,1117.39
2022-09-11T00:20:14.482Z,1117.32
2022-09-11T00:21:14.483Z,1117.26
2022-09-11T00:22:14.486Z,1117.03
2022-09-11T00:23:14.488Z,1117.16
2022-09-11T00:24:14.510Z,1117.14
2022-09-11T00:25:14.491Z,1117.18
2022-09-11T00:26:14.494Z,1117.17
2022-09-11T00:27:14.495Z,1117.23
2022-09-11T00:28:14.499Z,1117.27
2022-09-11T00:29:14.513Z,1117.19
2022-09-11T00:30:14.500Z,1117.26
2022-09-11T00:31:14.522Z,1117.35
2022-09-11T00:32:14.526Z,1117.12
2022-09-11T00:33:14.510Z,1117
2022-09-11T00:34:14.527Z,1116.94
2022-09-11T00:35:14.507Z,1117.02
2022-09-11T00:36:14.511Z,1117.04
2022-09-11T00:37:14.511Z,1117.14
2022-09-11T00:38:17.351Z,1117.13
2022-09-11T00:39:14.534Z,1117.18
2022-09-11T00:40:14.518Z,1117.31
2022-09-11T00:41:14.519Z,1117.24
2022-09-11T00:42:14.521Z,1117.35
2022-09-11T00:43:14.524Z,1117.35
2022-09-11T00:44:14.543Z,1117.2
2022-09-11T00:45:14.524Z,1117.35
2022-09-11T00:46:14.533Z,1117.09
2022-09-11T00:47:14.528Z,1117.12
2022-09-11T00:48:14.615Z,1117.07
2022-09-11T00:49:14.547Z,1116.95
2022-09-11T00:50:14.533Z,1117.01
2022-09-11T00:51:14.537Z,1117.09
2022-09-11T00:52:14.536Z,1117.02
2022-09-11T00:53:14.542Z,1117.03
2022-09-11T00:54:14.558Z,1116.78
2022-09-11T00:55:14.557Z,1116.83
2022-09-11T00:56:14.547Z,1116.75
2022-09-11T00:57:14.546Z,1116.79
2022-09-11T00:58:14.549Z,1116.83
2022-09-11T00:59:14.565Z,1116.87
2022-09-11T01:00:14.553Z,1116.88
2022-09-11T01:01:14.635Z,1116.91
2022-09-11T01:02:14.583Z,1116.9
2022-09-11T01:03:14.556Z,1117
2022-09-11T01:04:14.614Z,1116.99
2022-09-11T01:05:14.559Z,1116.93
2022-09-11T01:06:14.566Z,1116.93
2022-09-11T01:07:14.563Z,1116.91
2022-09-11T01:08:14.568Z,1116.69
2022-09-11T01:09:14.581Z,1116.72
2022-09-11T01:10:14.569Z,1116.55
2022-09-11T01:11:14.571Z,1116.59
2022-09-11T01:12:14.573Z,1116.47
2022-09-11T01:13:14.574Z,1116.16
2022-09-11T01:14:14.597Z,1116.09
2022-09-11T01:15:14.582Z,1115.89
2022-09-11T01:16:14.612Z,1115.91
2022-09-11T01:17:14.581Z,1115.7
2022-09-11T01:18:14.584Z,1115.63
2022-09-11T01:19:14.604Z,1115.39
2022-09-11T01:20:14.615Z,1115.36
2022-09-11T01:21:14.590Z,1115.27
2022-09-11T01:22:14.594Z,1115.16
2022-09-11T01:23:14.625Z,1115.09
2022-09-11T01:24:14.613Z,1115.04
2022-09-11T01:25:14.593Z,1114.97
2022-09-11T01:26:14.600Z,1114.92
2022-09-11T01:27:14.601Z,1114.8
2022-09-11T01:28:14.598Z,1114.4
2022-09-11T01:29:14.618Z,1114.47
2022-09-11T01:30:14.604Z,1114.13
2022-09-11T01:31:14.633Z,1114.07
2022-09-11T01:32:14.606Z,1113.96
2022-09-11T01:33:14.614Z,1113.81
2022-09-11T01:34:14.631Z,1113.73
2022-09-11T01:35:14.619Z,1113.73
2022-09-11T01:36:14.641Z,1113.61
2022-09-11T01:37:14.615Z,1113.55
2022-09-11T01:38:14.615Z,1113.69
2022-09-11T01:39:14.650Z,1113.63
2022-09-11T01:40:14.744Z,1113.75
2022-09-11T01:41:14.623Z,1113.85
2022-09-11T01:42:14.625Z,1113.85
2022-09-11T01:43:14.624Z,1113.71
2022-09-11T01:44:14.646Z,1113.72
2022-09-11T01:45:14.675Z,1113.72
2022-09-11T01:46:14.635Z,1113.81
2022-09-11T01:47:14.635Z,1113.69
2022-09-11T01:48:14.634Z,1113.73
2022-09-11T01:49:14.711Z,1113.65
2022-09-11T01:50:14.639Z,1113.46
2022-09-11T01:51:14.668Z,1113.35
2022-09-11T01:52:14.667Z,1113.31
2022-09-11T01:53:14.648Z,1113.36
2022-09-11T01:54:14.664Z,1113.16
2022-09-11T01:55:14.699Z,1113.04
2022-09-11T01:56:14.650Z,1112.93
2022-09-11T01:57:14.651Z,1112.89
2022-09-11T01:58:14.651Z,1112.66
2022-09-11T01:59:14.674Z,1112.87
2022-09-11T02:00:14.654Z,1112.86
2022-09-11T02:01:14.659Z,1112.87
2022-09-11T02:02:14.701Z,1112.78
2022-09-11T02:03:14.661Z,1113.15
2022-09-11T02:04:15.218Z,1113.3
2022-09-11T02:05:14.661Z,1113.44
2022-09-11T02:06:14.667Z,1113.6
2022-09-11T02:07:14.666Z,1113.58
2022-09-11T02:08:14.732Z,1113.69
2022-09-11T02:09:14.673Z,1113.56
2022-09-11T02:10:14.672Z,1113.62
2022-09-11T02:11:14.672Z,1113.65
2022-09-11T02:12:14.679Z,1113.64
2022-09-11T02:13:14.681Z,1113.7
2022-09-11T02:14:14.685Z,1113.69
2022-09-11T02:15:17.717Z,1113.92
2022-09-11T02:16:14.718Z,1113.91
2022-09-11T02:17:14.687Z,1113.92
2022-09-11T02:18:14.695Z,1113.87
2022-09-11T02:19:14.687Z,1114.06
2022-09-11T02:20:14.690Z,1113.99
2022-09-11T02:21:14.693Z,1113.93
2022-09-11T02:22:14.699Z,1114.14
2022-09-11T02:23:14.698Z,1114.19
2022-09-11T02:24:14.719Z,1114.06
2022-09-11T02:25:14.698Z,1114.21
2022-09-11T02:26:17.461Z,1114.19
2022-09-11T02:27:14.704Z,1114.26
2022-09-11T02:28:14.701Z,1114.19
2022-09-11T02:29:14.704Z,1114.17
2022-09-11T02:30:14.708Z,1114.33
2022-09-11T02:31:14.759Z,1114.17
2022-09-11T02:32:14.713Z,1114.23
2022-09-11T02:33:14.711Z,1114.13
2022-09-11T02:34:14.716Z,1114.02
2022-09-11T02:35:14.713Z,1113.98
2022-09-11T02:36:14.716Z,1114.04
2022-09-11T02:37:17.810Z,1113.84
2022-09-11T02:38:14.721Z,1113.81
2022-09-11T02:39:14.726Z,1113.76
2022-09-11T02:40:14.816Z,1113.51
2022-09-11T02:41:14.726Z,1113.69
2022-09-11T02:42:14.730Z,1113.72
2022-09-11T02:43:14.749Z,1113.73
2022-09-11T02:44:14.730Z,1113.57
2022-09-11T02:45:14.747Z,1113.35
2022-09-11T02:46:14.736Z,1113.05
2022-09-11T02:47:14.735Z,1112.83
2022-09-11T02:48:17.539Z,1112.58
2022-09-11T02:49:14.741Z,1112.57
2022-09-11T02:50:14.743Z,1112.48
2022-09-11T02:51:14.741Z,1112.53
2022-09-11T02:52:14.746Z,1112.33
2022-09-11T02:53:14.751Z,1112.5
2022-09-11T02:54:14.751Z,1112.38
2022-09-11T02:55:14.748Z,1112.44
2022-09-11T02:56:14.776Z,1112.51
2022-09-11T02:57:14.751Z,1112.57
2022-09-11T02:58:14.757Z,1112.41
2022-09-11T02:59:14.757Z,1112.25
2022-09-11T03:00:14.757Z,1112.35
2022-09-11T03:01:14.787Z,1112.24
2022-09-11T03:02:14.856Z,1112.18
2022-09-11T03:03:14.766Z,1112.25
2022-09-11T03:04:14.765Z,1112.19
2022-09-11T03:05:14.770Z,1112.42
2022-09-11T03:06:14.772Z,1112.45
2022-09-11T03:07:14.773Z,1112.47
2022-09-11T03:08:14.775Z,1112.57
2022-09-11T03:09:14.773Z,1112.66
2022-09-11T03:10:14.775Z,1112.72
2022-09-11T03:11:14.776Z,1112.92
2022-09-11T03:12:14.805Z,1113.01
2022-09-11T03:13:14.790Z,1113.11
2022-09-11T03:14:14.783Z,1113.32
2022-09-11T03:15:14.793Z,1113.39
2022-09-11T03:16:14.802Z,1113.29
2022-09-11T03:17:14.791Z,1113.46
2022-09-11T03:18:14.790Z,1113.28
2022-09-11T03:19:14.789Z,1113.54
2022-09-11T03:20:14.794Z,1113.48
2022-09-11T03:21:14.797Z,1113.54
2022-09-11T03:22:14.799Z,1113.66
2022-09-11T03:23:14.798Z,1113.78
2022-09-11T03:24:14.801Z,1113.69
2022-09-11T03:25:14.806Z,1113.65
2022-09-11T03:26:14.804Z,1113.55
2022-09-11T03:27:14.806Z,1113.56
2022-09-11T03:28:14.836Z,1113.54
2022-09-11T03:29:14.812Z,1113.42
2022-09-11T03:30:14.812Z,1113.37
2022-09-11T03:31:14.838Z,1113.23
2022-09-11T03:32:14.820Z,1113.26
2022-09-11T03:33:14.817Z,1113.33
2022-09-11T03:34:14.818Z,1113.31
2022-09-11T03:35:14.826Z,1113.3
2022-09-11T03:36:14.822Z,1113.23
2022-09-11T03:37:14.824Z,1112.76
2022-09-11T03:38:14.864Z,1113.05
2022-09-11T03:39:14.825Z,1112.87
2022-09-11T03:40:14.879Z,1112.99
2022-09-11T03:41:14.829Z,1112.98
2022-09-11T03:42:14.836Z,1113.04
2022-09-11T03:43:14.842Z,1112.98
2022-09-11T03:44:14.859Z,1112.85
2022-09-11T03:45:14.841Z,1112.67
2022-09-11T03:46:14.839Z,1112.66
2022-09-11T03:47:14.845Z,1112.52
2022-09-11T03:48:14.840Z,1112.44
2022-09-11T03:49:14.845Z,1112.45
2022-09-11T03:50:14.863Z,1112.25
2022-09-11T03:51:14.847Z,1112.18
2022-09-11T03:52:14.849Z,1111.97
2022-09-11T03:53:14.850Z,1111.85
2022-09-11T03:54:14.854Z,1111.73
2022-09-11T03:55:14.855Z,1111.72
2022-09-11T03:56:14.858Z,1111.38
2022-09-11T03:57:14.855Z,1111.5
2022-09-11T03:58:14.858Z,1111.55
2022-09-11T03:59:14.859Z,1111.7
2022-09-11T04:00:14.883Z,1111.83
2022-09-11T04:01:15.008Z,1111.71
2022-09-11T04:02:14.899Z,1111.63
2022-09-11T04:03:14.869Z,1111.79
2022-09-11T04:04:14.868Z,1111.8
2022-09-11T04:05:14.875Z,1111.96
2022-09-11T04:06:14.872Z,1111.99
2022-09-11T04:07:14.911Z,1112.13
2022-09-11T04:08:14.882Z,1112.25
2022-09-11T04:09:14.878Z,1112.23
2022-09-11T04:10:14.879Z,1112.51
2022-09-11T04:11:14.880Z,1112.52
2022-09-11T04:12:14.886Z,1112.62
2022-09-11T04:13:14.884Z,1112.61
2022-09-11T04:14:14.887Z,1112.8
2022-09-11T04:15:14.911Z,1112.56
2022-09-11T04:16:14.985Z,1112.89
2022-09-11T04:17:14.894Z,1112.98
2022-09-11T04:18:14.898Z,1112.92
2022-09-11T04:19:14.895Z,1112.98
2022-09-11T04:20:14.897Z,1113.12
2022-09-11T04:21:14.908Z,1113.17
2022-09-11T04:22:14.921Z,1113.21
2022-09-11T04:23:14.902Z,1113.28
2022-09-11T04:24:14.904Z,1113.25
2022-09-11T04:25:14.908Z,1113.29
2022-09-11T04:26:14.907Z,1113.35
2022-09-11T04:27:14.908Z,1113.44
2022-09-11T04:28:14.911Z,1113.43
2022-09-11T04:29:14.949Z,1113.53
2022-09-11T04:30:14.921Z,1113.48
2022-09-11T04:31:17.769Z,1113.48
2022-09-11T04:32:14.950Z,1113.55
2022-09-11T04:33:14.920Z,1113.58
2022-09-11T04:34:14.921Z,1113.42
2022-09-11T04:35:14.926Z,1113.65
2022-09-11T04:36:14.931Z,1113.57
2022-09-11T04:37:14.924Z,1113.61
2022-09-11T04:38:14.929Z,1113.61
2022-09-11T04:39:14.936Z,1113.54
2022-09-11T04:40:14.953Z,1113.63
2022-09-11T04:41:14.934Z,1113.67
2022-09-11T04:42:18.086Z,1113.61
2022-09-11T04:43:14.935Z,1113.74
2022-09-11T04:44:14.938Z,1113.7
2022-09-11T04:45:14.936Z,1113.76
2022-09-11T04:46:14.945Z,1113.81
2022-09-11T04:47:14.967Z,1113.79
2022-09-11T04:48:14.945Z,1114.12
2022-09-11T04:49:14.950Z,1114.15
2022-09-11T04:50:14.950Z,1114.1
2022-09-11T04:51:14.949Z,1114.18
2022-09-11T04:52:14.957Z,1114.22
2022-09-11T04:53:18.024Z,1114.18
2022-09-11T04:54:14.956Z,1114.34
2022-09-11T04:55:14.958Z,1114.2
2022-09-11T04:56:14.961Z,1114.27
2022-09-11T04:57:14.961Z,1114.32
2022-09-11T04:58:14.961Z,1114.3
2022-09-11T04:59:14.966Z,1114.17
2022-09-11T05:00:14.970Z,1114.29
2022-09-11T05:01:15.012Z,1114.28
2022-09-11T05:02:15.165Z,1114.36
2022-09-11T05:03:14.992Z,1114.32
2022-09-11T05:04:18.130Z,1114.41
2022-09-11T05:05:14.973Z,1114.43
2022-09-11T05:06:14.977Z,1114.54
2022-09-11T05:07:14.977Z,1114.58
2022-09-11T05:08:14.981Z,1114.85
2022-09-11T05:09:14.983Z,1114.69
2022-09-11T05:10:14.984Z,1114.96
2022-09-11T05:11:14.984Z,1115.08
2022-09-11T05:12:14.988Z,1114.99
2022-09-11T05:13:14.988Z,1115.31
2022-09-11T05:14:14.990Z,1115.33
2022-09-11T05:15:17.759Z,1115.31
2022-09-11T05:16:15.036Z,1115.46
2022-09-11T05:17:14.993Z,1115.56
2022-09-11T05:18:14.996Z,1115.58
2022-09-11T05:19:15.020Z,1115.89
2022-09-11T05:20:15.000Z,1115.93
2022-09-11T05:21:15.002Z,1115.93
2022-09-11T05:22:15.006Z,1115.96
2022-09-11T05:23:15.002Z,1116.11
2022-09-11T05:24:15.007Z,1116.21
2022-09-11T05:25:15.011Z,1116.29
2022-09-11T05:26:15.012Z,1116.35
2022-09-11T05:27:15.011Z,1116.36
2022-09-11T05:28:15.013Z,1116.47
2022-09-11T05:29:15.014Z,1116.48
2022-09-11T05:30:15.018Z,1116.57
2022-09-11T05:31:15.034Z,1116.22
2022-09-11T05:32:15.021Z,1116.53
2022-09-11T05:33:15.023Z,1116.54
2022-09-11T05:34:15.021Z,1116.67
2022-09-11T05:35:15.053Z,1116.49
2022-09-11T05:36:15.025Z,1116.63
2022-09-11T05:37:15.029Z,1116.63
2022-09-11T05:38:15.035Z,1116.77
2022-09-11T05:39:15.031Z,1116.9
2022-09-11T05:40:15.056Z,1117.01
2022-09-11T05:41:15.035Z,1117.11
2022-09-11T05:42:15.081Z,1117.32
2022-09-11T05:43:15.044Z,1117.27
2022-09-11T05:44:15.042Z,1117.47
2022-09-11T05:45:15.041Z,1117.63
2022-09-11T05:46:15.048Z,1117.63
2022-09-11T05:47:15.047Z,1117.76
2022-09-11T05:48:15.045Z,1117.86
2022-09-11T05:49:15.050Z,1117.98
2022-09-11T05:50:15.050Z,1117.84
2022-09-11T05:51:15.075Z,1118.14
2022-09-11T05:52:15.054Z,1118.25
2022-09-11T05:53:15.058Z,1118.51
2022-09-11T05:54:15.057Z,1118.49
2022-09-11T05:55:15.062Z,1118.61
2022-09-11T05:56:15.062Z,1118.63
2022-09-11T05:57:15.063Z,1118.85
2022-09-11T05:58:15.069Z,1119
2022-09-11T05:59:15.070Z,1118.92
2022-09-11T06:00:15.069Z,1119.07
2022-09-11T06:01:15.126Z,1119.19
2022-09-11T06:02:15.166Z,1119.29
2022-09-11T06:03:15.472Z,1119.25
2022-09-11T06:04:15.075Z,1119.41
2022-09-11T06:05:15.076Z,1119.55
2022-09-11T06:06:15.079Z,1119.59
2022-09-11T06:07:15.176Z,1119.62
2022-09-11T06:08:15.085Z,1119.6
2022-09-11T06:09:15.083Z,1119.61
2022-09-11T06:10:15.083Z,1119.77
2022-09-11T06:11:15.089Z,1119.99
2022-09-11T06:12:15.088Z,1120.03
2022-09-11T06:13:15.088Z,1120.27
2022-09-11T06:14:15.091Z,1120.53
2022-09-11T06:15:30.376Z,1120.75
2022-09-11T06:16:18.207Z,1120.94
2022-09-11T06:17:15.131Z,1121.05
2022-09-11T06:18:15.101Z,1121.22
2022-09-11T06:19:15.098Z,1121.33
2022-09-11T06:20:15.101Z,1121.43
2022-09-11T06:21:15.110Z,1121.6
2022-09-11T06:22:15.107Z,1121.76
2022-09-11T06:23:15.131Z,1121.86
2022-09-11T06:24:15.109Z,1122
2022-09-11T06:25:15.110Z,1122.04
2022-09-11T06:26:15.113Z,1122.19
2022-09-11T06:27:15.137Z,1122.23
2022-09-11T06:28:15.116Z,1122.35
2022-09-11T06:29:15.121Z,1122.7
2022-09-11T06:30:15.119Z,1122.83
2022-09-11T06:31:15.125Z,1123.04
2022-09-11T06:32:15.125Z,1123.23
2022-09-11T06:33:15.126Z,1123.41
2022-09-11T06:34:15.130Z,1123.52
2022-09-11T06:35:15.127Z,1123.6
2022-09-11T06:36:15.130Z,1123.75
2022-09-11T06:37:15.132Z,1123.9
2022-09-11T06:38:15.139Z,1124.05
2022-09-11T06:39:15.162Z,1124.14
2022-09-11T06:40:15.178Z,1124.26
2022-09-11T06:41:15.167Z,1124.37
2022-09-11T06:42:15.141Z,1124.57
2022-09-11T06:43:15.143Z,1124.65
2022-09-11T06:44:15.147Z,1124.92
2022-09-11T06:45:15.143Z,1125.01
2022-09-11T06:46:15.147Z,1125.19
2022-09-11T06:47:15.153Z,1125.25
2022-09-11T06:48:15.153Z,1125.48
2022-09-11T06:49:15.154Z,1125.6
2022-09-11T06:50:15.157Z,1125.68
2022-09-11T06:51:15.156Z,1125.83
2022-09-11T06:52:15.157Z,1125.96
2022-09-11T06:53:15.159Z,1126.05
2022-09-11T06:54:15.163Z,1126.22
2022-09-11T06:55:15.187Z,1126.4
2022-09-11T06:56:15.165Z,1126.5
2022-09-11T06:57:15.169Z,1126.57
2022-09-11T06:58:18.209Z,1126.65
2022-09-11T06:59:15.172Z,1126.77
2022-09-11T07:00:15.192Z,1126.96
2022-09-11T07:01:15.310Z,1126.85
2022-09-11T07:02:15.273Z,1126.87
2022-09-11T07:03:15.178Z,1126.85
2022-09-11T07:04:15.180Z,1126.87
2022-09-11T07:05:15.208Z,1126.83
2022-09-11T07:06:15.181Z,1126.84
2022-09-11T07:07:15.186Z,1126.98
2022-09-11T07:08:15.186Z,1127.07
2022-09-11T07:09:17.955Z,1127.06
2022-09-11T07:10:15.207Z,1127.14
2022-09-11T07:11:15.217Z,1127.16
2022-09-11T07:12:15.199Z,1127.18
2022-09-11T07:13:15.193Z,1127.16
2022-09-11T07:14:15.197Z,1127.16
2022-09-11T07:15:15.223Z,1127.24
2022-09-11T07:16:15.238Z,1127.27
2022-09-11T07:17:15.202Z,1127.35
2022-09-11T07:18:15.207Z,1127.48
2022-09-11T07:19:15.210Z,1127.6
2022-09-11T07:20:16.434Z,1127.83
2022-09-11T07:21:15.212Z,1127.99
2022-09-11T07:22:15.212Z,1128.09
2022-09-11T07:23:15.212Z,1128.14
2022-09-11T07:24:15.215Z,1128.43
2022-09-11T07:25:15.248Z,1128.53
2022-09-11T07:26:15.219Z,1128.77
2022-09-11T07:27:15.243Z,1129.04
2022-09-11T07:28:16.227Z,1129.16
2022-09-11T07:29:15.222Z,1129.25
2022-09-11T07:30:15.224Z,1129.48
2022-09-11T07:31:20.816Z,1129.65
2022-09-11T07:32:15.229Z,1129.81
2022-09-11T07:33:15.233Z,1129.86
2022-09-11T07:34:15.229Z,1130.09
2022-09-11T07:35:15.234Z,1130.2
2022-09-11T07:36:15.240Z,1130.43
2022-09-11T07:37:15.243Z,1130.55
2022-09-11T07:38:15.239Z,1130.57
2022-09-11T07:39:15.239Z,1130.7
2022-09-11T07:40:15.323Z,1130.79
2022-09-11T07:41:15.256Z,1130.85
2022-09-11T07:42:18.123Z,1130.98
2022-09-11T07:43:15.244Z,1131.11
2022-09-11T07:44:15.251Z,1131.13
2022-09-11T07:45:15.252Z,1131.26
2022-09-11T07:46:15.256Z,1131.36
2022-09-11T07:47:15.257Z,1131.49
2022-09-11T07:48:15.261Z,1131.6
2022-09-11T07:49:15.255Z,1131.73
2022-09-11T07:50:15.257Z,1131.82
2022-09-11T07:51:15.394Z,1131.95
2022-09-11T07:52:16.892Z,1132.02
2022-09-11T07:53:15.262Z,1132.11
2022-09-11T07:54:15.266Z,1132.18
2022-09-11T07:55:15.276Z,1132.2
2022-09-11T07:56:15.266Z,1132.19
2022-09-11T07:57:15.316Z,1132.31
2022-09-11T07:58:15.300Z,1132.23
2022-09-11T07:59:15.273Z,1132.27
2022-09-11T08:00:15.276Z,1132.33
2022-09-11T08:01:15.320Z,1132.38
2022-09-11T08:02:15.333Z,1132.36
2022-09-11T08:03:15.282Z,1132.34
2022-09-11T08:04:15.282Z,1132.4
2022-09-11T08:05:15.286Z,1132.47
2022-09-11T08:06:17.907Z,1132.45
2022-09-11T08:07:15.291Z,1132.49
2022-09-11T08:08:15.295Z,1132.51
2022-09-11T08:09:15.696Z,1132.56
2022-09-11T08:10:30.739Z,1132.61
2022-09-11T08:11:15.304Z,1132.61
2022-09-11T08:12:15.296Z,1132.65
2022-09-11T08:13:15.316Z,1132.64
2022-09-11T08:14:15.325Z,1132.73
2022-09-11T08:15:15.302Z,1132.78
2022-09-11T08:16:15.373Z,1132.87
2022-09-11T08:17:15.312Z,1132.89
2022-09-11T08:18:15.309Z,1132.94
2022-09-11T08:19:15.308Z,1133
2022-09-11T08:20:15.309Z,1133.01
2022-09-11T08:21:15.329Z,1133.09
2022-09-11T08:22:15.319Z,1133.07
2022-09-11T08:23:15.317Z,1133.14
2022-09-11T08:24:15.320Z,1133.21
2022-09-11T08:25:15.321Z,1133.23
2022-09-11T08:26:15.336Z,1133.22
2022-09-11T08:27:15.326Z,1133.25
2022-09-11T08:28:15.326Z,1133.29
2022-09-11T08:29:15.328Z,1133.26
2022-09-11T08:30:15.353Z,1133.35
2022-09-11T08:31:15.386Z,1133.32
2022-09-11T08:32:15.333Z,1133.3
2022-09-11T08:33:15.336Z,1133.34
2022-09-11T08:34:15.339Z,1133.3
2022-09-11T08:35:15.335Z,1133.31
2022-09-11T08:36:15.366Z,1133.32
2022-09-11T08:37:15.342Z,1133.35
2022-09-11T08:38:15.345Z,1133.4
2022-09-11T08:39:15.344Z,1133.37
2022-09-11T08:40:15.392Z,1133.34
2022-09-11T08:41:15.364Z,1133.34
2022-09-11T08:42:15.350Z,1133.35
2022-09-11T08:43:15.351Z,1133.31
2022-09-11T08:44:15.355Z,1133.34
2022-09-11T08:45:15.354Z,1133.37
2022-09-11T08:46:15.397Z,1133.31
2022-09-11T08:47:15.363Z,1133.31
2022-09-11T08:48:15.358Z,1133.25
2022-09-11T08:49:15.367Z,1133.21
2022-09-11T08:50:15.363Z,1133.1
2022-09-11T08:51:15.381Z,1133.07
2022-09-11T08:52:15.371Z,1132.97
2022-09-11T08:53:15.370Z,1132.86
2022-09-11T08:54:15.373Z,1132.73
2022-09-11T08:55:15.371Z,1132.65
2022-09-11T08:56:15.390Z,1132.57
2022-09-11T08:57:15.379Z,1132.42
2022-09-11T08:58:15.382Z,1132.3
2022-09-11T08:59:15.380Z,1132.23
2022-09-11T09:00:15.385Z,1132.14
2022-09-11T09:01:15.461Z,1132.09
2022-09-11T09:02:15.444Z,1131.98
2022-09-11T09:03:15.386Z,1131.98
2022-09-11T09:04:15.388Z,1131.92
2022-09-11T09:05:15.394Z,1131.77
2022-09-11T09:06:15.421Z,1131.68
2022-09-11T09:07:15.397Z,1131.55
2022-09-11T09:08:15.396Z,1131.31
2022-09-11T09:09:15.402Z,1131.13
2022-09-11T09:10:15.402Z,1130.92
2022-09-11T09:11:15.419Z,1130.7
2022-09-11T09:12:15.404Z,1130.46
2022-09-11T09:13:15.403Z,1130.3
2022-09-11T09:14:15.406Z,1130.15
2022-09-11T09:15:15.409Z,1130
2022-09-11T09:16:15.461Z,1129.75
2022-09-11T09:17:15.413Z,1129.63
2022-09-11T09:18:15.529Z,1129.47
2022-09-11T09:19:15.414Z,1129.44
2022-09-11T09:20:15.418Z,1129.39
2022-09-11T09:21:15.445Z,1129.31
2022-09-11T09:22:15.420Z,1129.09
2022-09-11T09:23:15.430Z,1128.96
2022-09-11T09:24:15.423Z,1128.93
2022-09-11T09:25:15.425Z,1129.14
2022-09-11T09:26:15.447Z,1129.15
2022-09-11T09:27:15.428Z,1129.2
2022-09-11T09:28:15.431Z,1129.34
2022-09-11T09:29:15.438Z,1129.42
2022-09-11T09:30:15.451Z,1129.27
2022-09-11T09:31:15.503Z,1129.15
2022-09-11T09:32:15.445Z,1129.09
2022-09-11T09:33:15.444Z,1129.03
2022-09-11T09:34:15.464Z,1128.91
2022-09-11T09:35:15.447Z,1128.69
2022-09-11T09:36:16.552Z,1128.59
2022-09-11T09:37:15.449Z,1128.35
2022-09-11T09:38:17.634Z,1128.26
2022-09-11T09:39:15.457Z,1127.86
2022-09-11T09:40:15.496Z,1127.39
2022-09-11T09:41:15.455Z,1127
2022-09-11T09:42:15.457Z,1126.87
2022-09-11T09:43:15.460Z,1126.77
2022-09-11T09:44:19.016Z,1126.7
2022-09-11T09:45:15.465Z,1126.51
2022-09-11T09:46:15.521Z,1126.18
2022-09-11T09:47:18.591Z,1125.82
2022-09-11T09:48:15.466Z,1124.68
2022-09-11T09:49:15.475Z,1123.9
2022-09-11T09:50:15.494Z,1123.61
2022-09-11T09:51:15.473Z,1123.56
2022-09-11T09:52:15.491Z,1123.71
2022-09-11T09:53:15.500Z,1123.79
2022-09-11T09:54:15.480Z,1124.04
2022-09-11T09:55:15.481Z,1124.32
2022-09-11T09:56:15.485Z,1124.72
2022-09-11T09:57:15.485Z,1125.05
2022-09-11T09:58:18.260Z,1125.51
2022-09-11T09:59:15.490Z,1125.75
2022-09-11T10:00:15.487Z,1125.94
2022-09-11T10:01:18.033Z,1126.08
2022-09-11T10:02:15.517Z,1126.02
2022-09-11T10:03:15.493Z,1125.85
2022-09-11T10:04:15.568Z,1125.53
2022-09-11T10:05:15.503Z,1124.82
2022-09-11T10:06:15.526Z,1123.87
2022-09-11T10:07:15.505Z,1123.23
2022-09-11T10:08:15.506Z,1122.44
2022-09-11T10:09:18.275Z,1121.6
2022-09-11T10:10:15.512Z,1119.66
2022-09-11T10:11:15.512Z,1117.92
2022-09-11T10:12:15.513Z,1116.56
2022-09-11T10:13:19.680Z,1115.15
2022-09-11T10:14:29.088Z,1114.17
2022-09-11T10:15:15.518Z,1111.28
2022-09-11T10:16:15.529Z,1108.11
2022-09-11T10:17:15.523Z,1105.32
2022-09-11T10:18:15.522Z,1101.31
2022-09-11T10:19:15.526Z,1097.43
2022-09-11T10:20:18.646Z,1091.88
2022-09-11T10:21:15.525Z,1088.42
2022-09-11T10:22:15.560Z,1084.66
2022-09-11T10:23:15.533Z,1082.01
2022-09-11T10:24:15.531Z,1081.6
2022-09-11T10:25:15.535Z,1081.65
2022-09-11T10:26:15.552Z,1080.08
2022-09-11T10:27:18.672Z,1077.67
2022-09-11T10:28:15.541Z,1075.9
2022-09-11T10:29:15.545Z,1074.67
2022-09-11T10:30:15.600Z,1073.46
2022-09-11T10:31:15.633Z,1071.39
2022-09-11T10:32:15.553Z,1069.21
2022-09-11T10:33:15.551Z,1069.4
2022-09-11T10:34:15.559Z,1069.62
2022-09-11T10:35:15.551Z,1069.71
2022-09-11T10:36:15.556Z,1070.88
2022-09-11T10:37:15.559Z,1072.49
2022-09-11T10:38:15.590Z,1074.15
2022-09-11T10:39:15.561Z,1075.44
2022-09-11T10:40:15.682Z,1076.62
2022-09-11T10:41:15.568Z,1077.35
2022-09-11T10:42:15.566Z,1077.59
2022-09-11T10:43:15.567Z,1077.67
2022-09-11T10:44:15.568Z,1077.66
2022-09-11T10:45:15.579Z,1077.91
2022-09-11T10:46:15.573Z,1077.26
2022-09-11T10:47:15.576Z,1077.31
2022-09-11T10:48:15.578Z,1078.93
2022-09-11T10:49:15.578Z,1079.59
2022-09-11T10:50:15.579Z,1079.8
2022-09-11T10:51:15.583Z,1079.48
2022-09-11T10:52:15.586Z,1078.96
2022-09-11T10:53:15.586Z,1078.64
2022-09-11T10:54:15.611Z,1077.5
2022-09-11T10:55:15.588Z,1077
2022-09-11T10:56:15.592Z,1075.91
2022-09-11T10:57:15.592Z,1073.51
2022-09-11T10:58:15.598Z,1070.01
2022-09-11T10:59:15.598Z,1063.42
2022-09-11T11:00:15.604Z,1063.96
2022-09-11T11:01:15.633Z,1065.11
2022-09-11T11:02:15.692Z,1066.26
2022-09-11T11:03:15.605Z,1067.46
2022-09-11T11:04:15.610Z,1069
2022-09-11T11:05:15.611Z,1069.18
2022-09-11T11:06:15.612Z,1069.34
2022-09-11T11:07:15.613Z,1068.93
2022-09-11T11:08:15.613Z,1069.42
2022-09-11T11:09:15.614Z,1069.95
2022-09-11T11:10:15.645Z,1070.96
2022-09-11T11:11:15.619Z,1071.37
2022-09-11T11:12:15.622Z,1073.19
2022-09-11T11:13:15.623Z,1074.74
2022-09-11T11:14:15.622Z,1076.66
2022-09-11T11:15:15.628Z,1078.46
2022-09-11T11:16:15.664Z,1080.48
2022-09-11T11:17:15.635Z,1081.71
2022-09-11T11:18:15.636Z,1083.7
2022-09-11T11:19:15.635Z,1085.65
2022-09-11T11:20:15.637Z,1087.41
2022-09-11T11:21:15.637Z,1089.16
2022-09-11T11:22:15.657Z,1090.44
2022-09-11T11:23:16.593Z,1091.67
2022-09-11T11:24:15.644Z,1092.58
2022-09-11T11:25:15.645Z,1093.33
2022-09-11T11:26:15.669Z,1091.68
2022-09-11T11:27:15.665Z,1086.72
2022-09-11T11:28:15.652Z,1084.09
2022-09-11T11:29:15.653Z,1083.53
2022-09-11T11:30:15.653Z,1083.01
2022-09-11T11:31:15.821Z,1078.73
2022-09-11T11:32:15.672Z,1073.5
2022-09-11T11:33:15.660Z,1068.4
2022-09-11T11:34:15.666Z,1063.06
2022-09-11T11:35:15.666Z,1058.3
2022-09-11T11:36:15.665Z,1053.76
2022-09-11T11:37:15.682Z,1049.71
2022-09-11T11:38:15.671Z,1051.62
2022-09-11T11:39:15.674Z,1054.09
2022-09-11T11:40:15.756Z,1055.36
2022-09-11T11:41:15.676Z,1056.18
2022-09-11T11:42:15.722Z,1056.1
2022-09-11T11:43:15.681Z,1055.25
2022-09-11T11:44:15.682Z,1053.93
2022-09-11T11:45:15.684Z,1054
2022-09-11T11:46:15.783Z,1054.63
2022-09-11T11:47:15.704Z,1054.3
2022-09-11T11:48:15.687Z,1052.45
2022-09-11T11:49:15.689Z,1049.12
2022-09-11T11:50:15.691Z,1045.28
2022-09-11T11:51:15.697Z,1043.3
2022-09-11T11:52:15.714Z,1042.33
2022-09-11T11:53:15.694Z,1042.78
2022-09-11T11:54:15.702Z,1044.29
2022-09-11T11:55:15.701Z,1046.19
2022-09-11T11:56:15.700Z,1047.73
2022-09-11T11:57:15.722Z,1049.11
2022-09-11T11:58:15.730Z,1050.71
2022-09-11T11:59:15.705Z,1053
2022-09-11T12:00:15.709Z,1054.19
2022-09-11T12:01:15.711Z,1055.21
2022-09-11T12:02:15.753Z,1056.56
2022-09-11T12:03:18.522Z,1057.35
2022-09-11T12:04:15.719Z,1058.18
2022-09-11T12:05:15.720Z,1058.66
2022-09-11T12:06:15.723Z,1059.36
2022-09-11T12:07:15.751Z,1059.99
2022-09-11T12:08:15.721Z,1060.36